Time;durP1;ratioP1;P1;durP2;ratioP2;P2;SDS_P1;SDS_P2;PMS_P1;PMS_P2;Temp;Humidity;BMP_temperature;BMP_pressure;BME280_temperature;BME280_humidity;BME280_pressure;Samples;Min_cycle;Max_cycle;Signal;HPM_P1;HPM_P2
2024/02/26 00:01:52;;;;;;;;;;;307.90;2304.00;;;;;;5075369;28;19913;-76
2024/02/26 00:04:18;;;;;;;;;;;307.80;2304.00;;;;;;5074829;28;19991;-74
2024/02/26 00:06:43;;;;;;;;;;;307.80;2304.00;;;;;;5083889;28;19908;-75
2024/02/26 00:09:09;;;;;;;;;;;307.80;2304.00;;;;;;5078147;28;19931;-76
2024/02/26 00:11:38;;;;;;;;;;;307.80;2304.00;;;;;;5084368;28;19912;-73
2024/02/26 00:14:04;;;;;;;;;;;307.80;2304.00;;;;;;5072725;28;19919;-74
2024/02/26 00:16:29;;;;;;;;;;;307.80;2304.00;;;;;;5073338;28;19913;-75
2024/02/26 00:18:55;;;;;;;;;;;307.80;2304.00;;;;;;5085244;28;20011;-75
2024/02/26 00:21:21;;;;;;;;;;;307.80;2304.00;;;;;;5091863;28;19923;-75
2024/02/26 00:23:46;;;;;;;;;;;307.80;2304.00;;;;;;5093274;28;19912;-76
2024/02/26 00:26:12;;;;;;;;;;;307.80;2304.00;;;;;;5093122;28;19912;-82
2024/02/26 00:28:38;;;;;;;;;;;307.80;2304.00;;;;;;5093252;28;19916;-75
2024/02/26 00:31:03;;;;;;;;;;;307.70;2304.00;;;;;;5093327;28;19908;-75
2024/02/26 00:33:29;;;;;;;;;;;307.70;2304.00;;;;;;5093121;28;20383;-76
2024/02/26 00:35:54;;;;;;;;;;;307.70;2304.00;;;;;;5093110;28;19912;-75
2024/02/26 00:38:20;;;;;;;;;;;307.70;2304.00;;;;;;5093343;28;19916;-75
2024/02/26 00:40:46;;;;;;;;;;;307.70;2304.00;;;;;;5093035;28;20347;-74
2024/02/26 00:43:12;;;;;;;;;;;307.70;2304.00;;;;;;5097093;28;20287;-75
2024/02/26 00:45:37;;;;;;;;;;;307.70;2304.00;;;;;;5097137;28;19909;-75
2024/02/26 00:48:07;;;;;;;;;;;307.60;2304.00;;;;;;5096873;28;19969;-74
2024/02/26 00:50:33;;;;;;;;;;;307.60;2304.00;;;;;;5096873;28;19915;-79
2024/02/26 00:52:59;;;;;;;;;;;307.60;2304.00;;;;;;5096423;28;19915;-74
2024/02/26 00:55:24;;;;;;;;;;;307.60;2304.00;;;;;;5096558;28;20329;-75
2024/02/26 00:57:50;;;;;;;;;;;307.60;2304.00;;;;;;5096509;28;19926;-79
2024/02/26 01:00:16;;;;;;;;;;;307.60;2304.00;;;;;;5096857;28;19923;-75
2024/02/26 01:02:41;;;;;;;;;;;307.60;2304.00;;;;;;5096282;28;19919;-75
2024/02/26 01:05:09;;;;;;;;;;;307.60;2304.00;;;;;;5096687;28;20383;-75
2024/02/26 01:07:35;;;;;;;;;;;307.60;2304.00;;;;;;5096322;28;19908;-74
2024/02/26 01:10:02;;;;;;;;;;;307.60;2304.00;;;;;;5096545;28;19998;-76
2024/02/26 01:12:27;;;;;;;;;;;307.60;2304.00;;;;;;5096278;28;19908;-75
2024/02/26 01:14:53;;;;;;;;;;;307.60;2304.00;;;;;;5096668;28;19915;-76
2024/02/26 01:17:19;;;;;;;;;;;307.60;2304.00;;;;;;5096222;28;19915;-75
2024/02/26 01:19:44;;;;;;;;;;;307.60;2304.00;;;;;;5096315;28;19935;-83
2024/02/26 01:22:10;;;;;;;;;;;307.60;2304.00;;;;;;5096048;28;19916;-75
2024/02/26 01:24:35;;;;;;;;;;;307.60;2304.00;;;;;;5096035;28;20314;-75
2024/02/26 01:27:01;;;;;;;;;;;307.60;2304.00;;;;;;5096022;28;19919;-76
2024/02/26 01:29:26;;;;;;;;;;;307.60;2304.00;;;;;;5096216;28;20344;-75
2024/02/26 01:31:52;;;;;;;;;;;307.60;2304.00;;;;;;5095831;28;19909;-75
2024/02/26 01:34:18;;;;;;;;;;;307.60;2304.00;;;;;;5096223;28;20068;-77
2024/02/26 01:36:44;;;;;;;;;;;307.60;2304.00;;;;;;5095642;28;19908;-76
2024/02/26 01:39:12;;;;;;;;;;;307.60;2304.00;;;;;;5095940;28;19987;-75
2024/02/26 01:41:38;;;;;;;;;;;307.50;2304.00;;;;;;5095832;28;19920;-75
2024/02/26 01:44:04;;;;;;;;;;;307.50;2304.00;;;;;;5096282;28;19908;-74
2024/02/26 01:46:30;;;;;;;;;;;307.40;2304.00;;;;;;5095994;28;19912;-75
2024/02/26 01:48:55;;;;;;;;;;;307.40;2304.00;;;;;;5096030;28;19908;-75
2024/02/26 01:51:22;;;;;;;;;;;307.40;2304.00;;;;;;5095629;28;20360;-84
2024/02/26 01:53:47;;;;;;;;;;;307.40;2304.00;;;;;;5094579;28;20011;-75
2024/02/26 01:56:14;;;;;;;;;;;307.40;2304.00;;;;;;5095166;28;19958;-75
2024/02/26 01:58:41;;;;;;;;;;;307.40;2304.00;;;;;;5095789;28;20282;-75
2024/02/26 02:01:07;;;;;;;;;;;307.30;2304.00;;;;;;5094680;28;19969;-75
2024/02/26 02:03:33;;;;;;;;;;;307.30;2304.00;;;;;;5083008;28;19912;-75
2024/02/26 02:05:59;;;;;;;;;;;307.20;2304.00;;;;;;5095307;28;20414;-74
2024/02/26 02:08:24;;;;;;;;;;;282.50;2278.40;;;;;;5095320;28;19923;-80
2024/02/26 02:10:50;;;;;;;;;;;282.50;2278.40;;;;;;5089248;28;20009;-75
2024/02/26 02:13:16;;;;;;;;;;;307.50;2304.00;;;;;;5095408;28;20457;-75
2024/02/26 02:15:42;;;;;;;;;;;282.40;2278.40;;;;;;5095146;28;20077;-76
2024/02/26 02:21:15;;;;;;;;;;;282.30;2278.40;;;;;;3334326;23;20002;-79
2024/02/26 02:23:46;;;;;;;;;;;282.20;2124.80;;;;;;4934787;29;20378;-78
2024/02/26 02:26:12;;;;;;;;;;;282.20;2252.80;;;;;;4936546;29;19922;-81
2024/02/26 02:28:38;;;;;;;;;;;282.20;2278.40;;;;;;4920153;29;19919;-74
2024/02/26 02:31:04;;;;;;;;;;;282.20;2278.40;;;;;;4936566;29;19998;-78
2024/02/26 02:33:29;;;;;;;;;;;282.10;2278.40;;;;;;4919807;29;19918;-80
2024/02/26 02:35:55;;;;;;;;;;;282.10;2278.40;;;;;;4919647;29;20001;-75
2024/02/26 02:38:21;;;;;;;;;;;282.10;2278.40;;;;;;4933297;29;19961;-74
2024/02/26 02:40:46;;;;;;;;;;;282.10;2278.40;;;;;;4918802;29;20290;-73
2024/02/26 02:43:12;;;;;;;;;;;282.00;2278.40;;;;;;4936151;29;20001;-76
2024/02/26 02:45:37;;;;;;;;;;;282.00;2278.40;;;;;;4936463;29;20252;-73
2024/02/26 02:48:03;;;;;;;;;;;282.00;2278.40;;;;;;4936262;29;19911;-77
2024/02/26 02:50:29;;;;;;;;;;;282.10;2278.40;;;;;;4919129;29;19942;-77
2024/02/26 02:52:54;;;;;;;;;;;282.10;2278.40;;;;;;4935952;29;19939;-79
2024/02/26 02:55:20;;;;;;;;;;;282.10;2278.40;;;;;;4919507;29;20009;-82
2024/02/26 02:57:45;;;;;;;;;;;282.20;2278.40;;;;;;4919667;29;19911;-74
2024/02/26 03:00:11;;;;;;;;;;;282.20;2278.40;;;;;;4935864;29;19969;-81
2024/02/26 03:02:37;;;;;;;;;;;282.20;2227.20;;;;;;4936391;29;19921;-82
2024/02/26 03:05:03;;;;;;;;;;;282.20;2278.40;;;;;;4935302;29;19934;-74
2024/02/26 03:07:29;;;;;;;;;;;282.20;2073.60;;;;;;4936137;29;19911;-82
2024/02/26 03:09:54;;;;;;;;;;;282.20;2201.60;;;;;;4935807;29;19921;-78
2024/02/26 03:12:20;;;;;;;;;;;282.20;1945.60;;;;;;4936192;29;19914;-73
2024/02/26 03:14:46;;;;;;;;;;;282.30;2278.40;;;;;;4935823;29;19918;-73
2024/02/26 03:17:11;;;;;;;;;;;282.20;2278.40;;;;;;4936143;29;19921;-82
2024/02/26 03:19:37;;;;;;;;;;;282.20;2278.40;;;;;;4918377;29;19922;-79
2024/02/26 03:22:03;;;;;;;;;;;282.20;1894.40;;;;;;4935847;29;19934;-78
2024/02/26 03:24:29;;;;;;;;;;;282.10;1945.60;;;;;;4935858;29;20368;-79
2024/02/26 03:26:54;;;;;;;;;;;282.10;1945.60;;;;;;4936303;29;19918;-79
2024/02/26 03:29:20;;;;;;;;;;;282.10;2278.40;;;;;;4935341;29;19965;-74
2024/02/26 03:31:45;;;;;;;;;;;282.10;1996.80;;;;;;4918975;29;19950;-83
2024/02/26 03:34:12;;;;;;;;;;;282.10;2278.40;;;;;;4918955;29;19915;-83
2024/02/26 03:36:38;;;;;;;;;;;282.10;2278.40;;;;;;4918925;29;19910;-73
2024/02/26 03:39:07;;;;;;;;;;;282.10;2278.40;;;;;;4918694;29;20430;-79
2024/02/26 03:41:33;;;;;;;;;;;282.10;2278.40;;;;;;4935724;29;19942;-74
2024/02/26 03:43:59;;;;;;;;;;;282.10;1894.40;;;;;;4906238;29;19919;-74
2024/02/26 03:46:24;;;;;;;;;;;282.10;2022.40;;;;;;4935895;29;20278;-80
2024/02/26 03:48:50;;;;;;;;;;;282.00;2073.60;;;;;;4935582;29;20415;-73
2024/02/26 03:51:15;;;;;;;;;;;282.00;2048.00;;;;;;4935268;29;19925;-73
2024/02/26 03:53:41;;;;;;;;;;;282.10;1971.20;;;;;;4935850;29;20279;-79
2024/02/26 03:56:07;;;;;;;;;;;282.10;2278.40;;;;;;4935578;29;19962;-72
2024/02/26 03:58:32;;;;;;;;;;;282.10;2278.40;;;;;;4935202;29;19926;-73
2024/02/26 04:01:01;;;;;;;;;;;282.10;1945.60;;;;;;4935869;29;19926;-82
2024/02/26 04:03:26;;;;;;;;;;;282.10;2278.40;;;;;;4935340;29;19959;-75
2024/02/26 04:05:52;;;;;;;;;;;282.10;2278.40;;;;;;4918783;29;19942;-75
2024/02/26 04:08:18;;;;;;;;;;;282.10;1894.40;;;;;;4935612;29;20282;-75
2024/02/26 04:10:43;;;;;;;;;;;282.20;1996.80;;;;;;4935646;29;20283;-75
2024/02/26 04:13:09;;;;;;;;;;;282.20;2048.00;;;;;;4935425;29;20013;-74
2024/02/26 04:15:34;;;;;;;;;;;282.20;2048.00;;;;;;4935704;29;20350;-76
2024/02/26 04:18:00;;;;;;;;;;;282.20;2073.60;;;;;;4938663;29;19926;-73
2024/02/26 04:20:25;;;;;;;;;;;282.30;2099.20;;;;;;4938892;29;19934;-75
2024/02/26 04:22:51;;;;;;;;;;;282.30;2022.40;;;;;;4938349;29;20434;-74
2024/02/26 04:25:17;;;;;;;;;;;282.40;2073.60;;;;;;4938852;29;19918;-80
2024/02/26 04:27:42;;;;;;;;;;;282.40;1996.80;;;;;;4938890;29;19966;-81
2024/02/26 04:30:08;;;;;;;;;;;282.40;2278.40;;;;;;4939079;29;19959;-74
2024/02/26 04:32:34;;;;;;;;;;;282.50;2278.40;;;;;;4938951;29;20256;-82
2024/02/26 04:35:03;;;;;;;;;;;282.50;2278.40;;;;;;4938692;29;20283;-74
2024/02/26 04:37:31;;;;;;;;;;;282.50;2278.40;;;;;;4939062;29;20357;-76
2024/02/26 04:40:00;;;;;;;;;;;282.50;2278.40;;;;;;4938870;29;19915;-75
2024/02/26 04:42:26;;;;;;;;;;;282.50;2278.40;;;;;;4921973;29;19915;-78
2024/02/26 04:44:52;;;;;;;;;;;282.50;2278.40;;;;;;4938646;29;19911;-72
2024/02/26 04:47:17;;;;;;;;;;;307.20;2304.00;;;;;;4938658;29;19911;-74
2024/02/26 04:49:43;;;;;;;;;;;307.20;2304.00;;;;;;4938471;29;19961;-84
2024/02/26 04:52:09;;;;;;;;;;;307.20;2304.00;;;;;;4920929;29;20396;-75
2024/02/26 04:54:34;;;;;;;;;;;307.20;2304.00;;;;;;4938589;29;19922;-78
2024/02/26 04:57:00;;;;;;;;;;;307.20;2304.00;;;;;;4938194;29;19911;-76
2024/02/26 04:59:26;;;;;;;;;;;307.20;2304.00;;;;;;4921215;29;19962;-79
2024/02/26 05:01:52;;;;;;;;;;;282.50;2278.40;;;;;;4921473;29;19961;-76
2024/02/26 05:04:18;;;;;;;;;;;282.50;2278.40;;;;;;4938387;29;19911;-75
2024/02/26 05:06:43;;;;;;;;;;;307.20;2304.00;;;;;;4937811;29;20387;-78
2024/02/26 05:09:09;;;;;;;;;;;307.20;2304.00;;;;;;4921478;29;19911;-78
2024/02/26 05:11:35;;;;;;;;;;;307.20;2304.00;;;;;;4921039;29;20414;-79
2024/02/26 05:14:01;;;;;;;;;;;307.20;2304.00;;;;;;4938357;29;19910;-82
2024/02/26 05:16:27;;;;;;;;;;;307.20;2304.00;;;;;;4938369;29;20314;-82
2024/02/26 05:18:53;;;;;;;;;;;307.20;2304.00;;;;;;4937773;29;20345;-74
2024/02/26 05:21:18;;;;;;;;;;;307.20;2304.00;;;;;;4937213;29;20014;-72
2024/02/26 05:23:45;;;;;;;;;;;307.20;2304.00;;;;;;4934255;29;19940;-72
2024/02/26 05:26:10;;;;;;;;;;;307.20;2304.00;;;;;;4928977;29;19911;-79
2024/02/26 05:28:38;;;;;;;;;;;307.20;2304.00;;;;;;4929950;29;19967;-73
2024/02/26 05:31:04;;;;;;;;;;;307.20;2304.00;;;;;;4920951;29;19911;-73
2024/02/26 05:33:30;;;;;;;;;;;307.30;2304.00;;;;;;4938486;29;19938;-82
2024/02/26 05:35:56;;;;;;;;;;;307.30;2304.00;;;;;;4929955;29;20009;-75
2024/02/26 05:38:21;;;;;;;;;;;307.30;2304.00;;;;;;4926059;29;19950;-76
2024/02/26 05:40:47;;;;;;;;;;;307.30;2304.00;;;;;;4926258;29;19919;-74
2024/02/26 05:43:15;;;;;;;;;;;307.40;2304.00;;;;;;4930021;29;19973;-78
2024/02/26 05:45:41;;;;;;;;;;;307.40;2304.00;;;;;;4929239;29;20338;-82
2024/02/26 05:48:06;;;;;;;;;;;307.40;2304.00;;;;;;4924056;29;19911;-73
2024/02/26 05:50:32;;;;;;;;;;;307.40;2304.00;;;;;;4926006;29;19923;-77
2024/02/26 05:52:58;;;;;;;;;;;307.50;2304.00;;;;;;4937401;29;20385;-81
2024/02/26 05:55:23;;;;;;;;;;;307.50;2304.00;;;;;;4930341;29;19918;-73
2024/02/26 05:57:49;;;;;;;;;;;307.60;2304.00;;;;;;4937066;29;19910;-75
2024/02/26 06:00:15;;;;;;;;;;;307.60;2304.00;;;;;;4925212;29;19922;-82
2024/02/26 06:02:40;;;;;;;;;;;307.60;2304.00;;;;;;4924946;29;19931;-79
2024/02/26 06:05:08;;;;;;;;;;;307.60;2304.00;;;;;;4912108;29;19922;-75
2024/02/26 06:07:34;;;;;;;;;;;307.70;2304.00;;;;;;4934737;29;19914;-73
2024/02/26 06:10:00;;;;;;;;;;;307.70;2304.00;;;;;;4929617;29;19927;-80
2024/02/26 06:12:28;;;;;;;;;;;307.70;2304.00;;;;;;4932057;29;19911;-74
2024/02/26 06:14:54;;;;;;;;;;;307.80;2304.00;;;;;;4928176;29;19967;-74
2024/02/26 06:17:19;;;;;;;;;;;307.70;2304.00;;;;;;4928565;29;19915;-78
2024/02/26 06:19:45;;;;;;;;;;;307.80;2304.00;;;;;;4925051;29;19919;-74
2024/02/26 06:22:11;;;;;;;;;;;307.80;2304.00;;;;;;4925401;29;19990;-76
2024/02/26 06:24:36;;;;;;;;;;;307.80;2304.00;;;;;;4924912;29;19918;-71
2024/02/26 06:27:02;;;;;;;;;;;307.80;2304.00;;;;;;4927061;29;19911;-72
2024/02/26 06:29:28;;;;;;;;;;;307.80;2304.00;;;;;;4928781;29;19953;-73
2024/02/26 06:31:54;;;;;;;;;;;307.80;2304.00;;;;;;4920147;29;19918;-74
2024/02/26 06:34:20;;;;;;;;;;;307.80;2304.00;;;;;;4927215;29;19918;-73
2024/02/26 06:36:45;;;;;;;;;;;307.80;2304.00;;;;;;4925815;29;19911;-75
2024/02/26 06:39:12;;;;;;;;;;;307.90;2304.00;;;;;;4924628;29;20025;-77
2024/02/26 06:41:39;;;;;;;;;;;307.90;2304.00;;;;;;4929792;29;20001;-74
2024/02/26 06:44:05;;;;;;;;;;;307.90;2304.00;;;;;;4933160;29;19911;-73
2024/02/26 06:46:30;;;;;;;;;;;308.00;2304.00;;;;;;4914598;29;20010;-72
2024/02/26 06:48:56;;;;;;;;;;;308.00;2304.00;;;;;;4927943;29;20382;-73
2024/02/26 06:51:22;;;;;;;;;;;308.10;2304.00;;;;;;4923309;29;20046;-79
2024/02/26 06:53:48;;;;;;;;;;;332.90;2329.60;;;;;;4928458;29;19915;-75
2024/02/26 06:56:13;;;;;;;;;;;308.00;2304.00;;;;;;4922350;29;19911;-79
2024/02/26 06:58:39;;;;;;;;;;;308.10;2304.00;;;;;;4926809;29;19917;-73
2024/02/26 07:01:04;;;;;;;;;;;332.80;2329.60;;;;;;4932290;29;19974;-71
2024/02/26 07:03:30;;;;;;;;;;;332.80;2329.60;;;;;;4928392;29;20014;-72
2024/02/26 07:05:56;;;;;;;;;;;332.90;2329.60;;;;;;4925780;29;19930;-77
2024/02/26 07:08:21;;;;;;;;;;;332.90;2329.60;;;;;;4924298;29;20260;-75
2024/02/26 07:10:47;;;;;;;;;;;332.90;2329.60;;;;;;4937670;29;19915;-77
2024/02/26 07:13:12;;;;;;;;;;;332.90;2329.60;;;;;;4930525;29;20013;-75
2024/02/26 07:15:38;;;;;;;;;;;332.90;2329.60;;;;;;4910921;29;19914;-77
2024/02/26 07:18:04;;;;;;;;;;;332.90;2329.60;;;;;;4916317;29;19918;-79
2024/02/26 07:20:30;;;;;;;;;;;333.00;2329.60;;;;;;4924625;29;20344;-77
2024/02/26 07:22:55;;;;;;;;;;;333.00;2329.60;;;;;;4919678;29;19923;-83
2024/02/26 07:25:21;;;;;;;;;;;332.90;2329.60;;;;;;4918826;29;20259;-79
2024/02/26 07:27:47;;;;;;;;;;;333.00;2329.60;;;;;;4936728;29;19911;-76
2024/02/26 07:30:12;;;;;;;;;;;333.00;2329.60;;;;;;4923642;29;19911;-77
2024/02/26 07:32:38;;;;;;;;;;;333.10;2329.60;;;;;;4922811;29;20323;-74
2024/02/26 07:35:04;;;;;;;;;;;333.20;2329.60;;;;;;4933072;29;20271;-81
2024/02/26 07:37:30;;;;;;;;;;;333.20;2329.60;;;;;;4930524;29;19911;-75
2024/02/26 07:39:56;;;;;;;;;;;333.20;2329.60;;;;;;4910102;29;20377;-77
2024/02/26 07:42:21;;;;;;;;;;;333.20;2329.60;;;;;;4922724;29;20007;-75
2024/02/26 07:44:47;;;;;;;;;;;333.20;2329.60;;;;;;4928554;29;19930;-80
2024/02/26 07:47:12;;;;;;;;;;;333.30;2329.60;;;;;;4909670;29;20006;-79
2024/02/26 07:49:39;;;;;;;;;;;333.30;2329.60;;;;;;4928193;29;19910;-75
2024/02/26 07:52:05;;;;;;;;;;;;;;;;;;4924070;29;19919;-79
2024/02/26 07:54:30;;;;;;;;;;;333.40;2329.60;;;;;;4931392;29;19925;-81
2024/02/26 07:56:56;;;;;;;;;;;333.60;2329.60;;;;;;4918565;29;19954;-76
2024/02/26 07:59:22;;;;;;;;;;;333.60;2329.60;;;;;;4941469;29;19918;-74
2024/02/26 08:01:51;;;;;;;;;;;333.70;2329.60;;;;;;4934664;29;19954;-82
2024/02/26 08:04:16;;;;;;;;;;;358.40;2329.60;;;;;;4929153;29;19985;-83
2024/02/26 08:06:42;;;;;;;;;;;358.40;2329.60;;;;;;4917381;29;19911;-81
2024/02/26 08:09:08;;;;;;;;;;;358.50;2329.60;;;;;;4916576;29;19911;-81
2024/02/26 08:11:35;;;;;;;;;;;358.60;2329.60;;;;;;4914645;29;20359;-81
2024/02/26 08:14:01;;;;;;;;;;;358.70;2329.60;;;;;;4911007;29;19957;-80
2024/02/26 08:16:27;;;;;;;;;;;358.70;2329.60;;;;;;4917155;29;20370;-80
2024/02/26 08:18:52;;;;;;;;;;;358.80;2329.60;;;;;;4927768;29;19911;-82
2024/02/26 08:21:18;;;;;;;;;;;358.90;2329.60;;;;;;4909846;29;19961;-81
2024/02/26 08:23:44;;;;;;;;;;;359.00;2329.60;;;;;;4911374;29;19966;-81
2024/02/26 08:26:11;;;;;;;;;;;359.00;2329.60;;;;;;4908519;29;19919;-80
2024/02/26 08:28:37;;;;;;;;;;;359.10;2329.60;;;;;;4909080;29;19915;-82
2024/02/26 08:31:02;;;;;;;;;;;384.00;2329.60;;;;;;4909451;29;19911;-82
2024/02/26 08:33:28;;;;;;;;;;;359.20;2329.60;;;;;;4911790;29;19921;-80
2024/02/26 08:35:54;;;;;;;;;;;359.30;2329.60;;;;;;4924900;29;19911;-80
2024/02/26 08:38:19;;;;;;;;;;;359.30;2329.60;;;;;;4916895;29;19917;-79
2024/02/26 08:40:45;;;;;;;;;;;384.40;2329.60;;;;;;4908744;29;20053;-84
2024/02/26 08:43:10;;;;;;;;;;;384.10;2329.60;;;;;;4930597;29;19954;-79
2024/02/26 08:45:37;;;;;;;;;;;384.20;2329.60;;;;;;4931860;29;19946;-86
2024/02/26 08:48:02;;;;;;;;;;;384.40;2329.60;;;;;;4916595;29;19915;-78
2024/02/26 08:50:28;;;;;;;;;;;384.60;2329.60;;;;;;4933098;29;19965;-80
2024/02/26 08:52:54;;;;;;;;;;;384.80;2329.60;;;;;;4921574;29;20009;-77
2024/02/26 08:55:19;;;;;;;;;;;384.90;2329.60;;;;;;4926256;29;19912;-75
2024/02/26 08:57:45;;;;;;;;;;;384.90;2329.60;;;;;;4938936;29;19915;-78
2024/02/26 09:00:11;;;;;;;;;;;409.60;2355.20;;;;;;4922512;29;20328;-81
2024/02/26 09:02:38;;;;;;;;;;;409.70;2355.20;;;;;;4922380;29;20034;-81
2024/02/26 09:05:05;;;;;;;;;;;409.90;2355.20;;;;;;4903758;29;19911;-81
2024/02/26 09:07:31;;;;;;;;;;;410.10;2355.20;;;;;;4930808;29;19910;-78
2024/02/26 09:09:57;;;;;;;;;;;435.20;2355.20;;;;;;4922542;29;19911;-82
2024/02/26 09:12:22;;;;;;;;;;;435.50;2355.20;;;;;;4938679;29;19910;-80
2024/02/26 09:14:48;;;;;;;;;;;435.60;2355.20;;;;;;4938880;29;20381;-79
2024/02/26 09:17:13;;;;;;;;;;;435.60;2355.20;;;;;;4922294;29;19910;-77
2024/02/26 09:19:39;;;;;;;;;;;435.70;2355.20;;;;;;4939282;29;19918;-76
2024/02/26 09:22:05;;;;;;;;;;;435.80;2355.20;;;;;;4951277;29;20271;-76
2024/02/26 09:24:30;;;;;;;;;;;436.00;2355.20;;;;;;4938933;29;20077;-76
2024/02/26 09:26:56;;;;;;;;;;;436.00;2355.20;;;;;;4938968;29;19910;-76
2024/02/26 09:29:21;;;;;;;;;;;436.10;2355.20;;;;;;4921820;29;20375;-77
2024/02/26 09:31:47;;;;;;;;;;;460.80;2380.80;;;;;;4921606;29;19911;-80
2024/02/26 09:34:13;;;;;;;;;;;460.90;2380.80;;;;;;4951282;29;19956;-78
2024/02/26 09:36:39;;;;;;;;;;;461.00;2380.80;;;;;;4921971;29;20359;-78
2024/02/26 09:39:04;;;;;;;;;;;461.10;2380.80;;;;;;4938572;29;19917;-79
2024/02/26 09:41:31;;;;;;;;;;;461.40;2380.80;;;;;;4938954;29;19919;-79
2024/02/26 09:43:57;;;;;;;;;;;461.40;2380.80;;;;;;4921709;29;19938;-81
2024/02/26 09:46:23;;;;;;;;;;;461.70;2380.80;;;;;;4921477;29;19989;-82
2024/02/26 09:48:49;;;;;;;;;;;486.50;2380.80;;;;;;4938514;29;19927;-81
2024/02/26 09:51:16;;;;;;;;;;;486.80;2329.60;;;;;;4938283;29;19918;-80
2024/02/26 09:53:43;;;;;;;;;;;487.00;2355.20;;;;;;4940524;29;19943;-79
2024/02/26 09:56:11;;;;;;;;;;;487.00;2304.00;;;;;;4932120;29;19927;-80
2024/02/26 09:58:38;;;;;;;;;;;487.00;2252.80;;;;;;4921050;29;19921;-82
2024/02/26 10:01:08;;;;;;;;;;;487.10;2252.80;;;;;;4921125;29;19947;-83
2024/02/26 10:03:41;;;;;;;;;;;487.10;2176.00;;;;;;4921801;29;19921;-84
2024/02/26 10:06:08;;;;;;;;;;;512.10;2227.20;;;;;;4927111;29;19911;-83
2024/02/26 10:08:35;;;;;;;;;;;512.50;2073.60;;;;;;4926224;29;19921;-84
2024/02/26 10:11:00;;;;;;;;;;;512.40;2048.00;;;;;;4908344;29;19915;-81
2024/02/26 10:13:26;;;;;;;;;;;512.60;2124.80;;;;;;4904565;29;20294;-82
2024/02/26 10:15:52;;;;;;;;;;;512.90;2048.00;;;;;;4916480;29;19926;-82
2024/02/26 10:18:18;;;;;;;;;;;537.60;2048.00;;;;;;4913696;29;20367;-84
2024/02/26 10:20:58;;;;;;;;;;;537.70;1971.20;;;;;;4914829;29;19923;-82
2024/02/26 10:23:25;;;;;;;;;;;512.80;1920.00;;;;;;4926781;29;20009;-85
2024/02/26 10:25:55;;;;;;;;;;;512.90;1945.60;;;;;;4909785;29;19918;-78
2024/02/26 10:28:20;;;;;;;;;;;537.70;1945.60;;;;;;4929251;29;20006;-81
2024/02/26 10:30:46;;;;;;;;;;;537.70;1971.20;;;;;;4909312;29;19951;-81
2024/02/26 10:33:13;;;;;;;;;;;512.90;1894.40;;;;;;4935663;29;20278;-77
2024/02/26 10:35:40;;;;;;;;;;;537.60;1920.00;;;;;;4931363;29;19911;-77
2024/02/26 10:38:09;;;;;;;;;;;512.90;1868.80;;;;;;4928234;29;20249;-79
2024/02/26 10:40:34;;;;;;;;;;;537.80;1868.80;;;;;;4922002;29;19943;-78
2024/02/26 10:43:00;;;;;;;;;;;537.90;1868.80;;;;;;4924922;29;19911;-80
2024/02/26 10:45:26;;;;;;;;;;;538.30;1792.00;;;;;;4925536;29;20005;-80
2024/02/26 10:47:52;;;;;;;;;;;538.30;1843.20;;;;;;4905739;29;19983;-77
2024/02/26 10:50:18;;;;;;;;;;;538.10;1766.40;;;;;;4923368;29;19974;-77
2024/02/26 10:52:43;;;;;;;;;;;538.10;1792.00;;;;;;4926264;29;19911;-78
2024/02/26 10:55:13;;;;;;;;;;;538.40;1766.40;;;;;;4928822;29;19912;-80
2024/02/26 10:57:40;;;;;;;;;;;538.50;1740.80;;;;;;4918820;29;19911;-79
2024/02/26 11:00:06;;;;;;;;;;;563.20;1766.40;;;;;;4930154;29;19949;-79
2024/02/26 11:02:36;;;;;;;;;;;563.20;1792.00;;;;;;4925172;29;20204;-82
2024/02/26 11:05:03;;;;;;;;;;;;;;;;;;4919324;29;19998;-79
2024/02/26 11:07:30;;;;;;;;;;;563.80;1689.60;;;;;;4924550;29;19911;-78
2024/02/26 11:09:56;;;;;;;;;;;563.60;1664.00;;;;;;4911414;29;19994;-81
2024/02/26 11:12:22;;;;;;;;;;;563.80;1689.60;;;;;;4914107;29;19961;-77
2024/02/26 11:14:48;;;;;;;;;;;563.80;1664.00;;;;;;4910368;29;19910;-77
2024/02/26 11:17:16;;;;;;;;;;;563.60;1664.00;;;;;;4914068;29;20271;-78
2024/02/26 11:19:42;;;;;;;;;;;563.50;1689.60;;;;;;4903352;29;19915;-79
2024/02/26 11:22:08;;;;;;;;;;;563.40;1638.40;;;;;;4910932;29;19958;-81
2024/02/26 11:24:34;;;;;;;;;;;563.20;1664.00;;;;;;4912655;29;19957;-78
2024/02/26 11:27:02;;;;;;;;;;;563.40;1638.40;;;;;;4926212;29;19998;-78
2024/02/26 11:29:29;;;;;;;;;;;563.20;1664.00;;;;;;4929762;29;19998;-78
2024/02/26 11:31:55;;;;;;;;;;;563.40;1664.00;;;;;;4919640;29;19918;-78
2024/02/26 11:34:21;;;;;;;;;;;563.50;1612.80;;;;;;4928636;29;20105;-76
2024/02/26 11:36:47;;;;;;;;;;;563.70;1638.40;;;;;;4925318;29;19911;-76
2024/02/26 11:39:14;;;;;;;;;;;588.80;1587.20;;;;;;4925991;29;20295;-76
2024/02/26 11:41:40;;;;;;;;;;;564.00;1561.60;;;;;;4907348;29;19919;-81
2024/02/26 11:44:07;;;;;;;;;;;564.10;1612.80;;;;;;4926512;29;19911;-77
2024/02/26 11:46:33;;;;;;;;;;;564.00;1612.80;;;;;;4910916;29;19979;-77
2024/02/26 11:49:17;;;;;;;;;;;563.90;1612.80;;;;;;4915685;29;20375;-81
2024/02/26 11:51:43;;;;;;;;;;;564.00;1587.20;;;;;;4911313;29;19923;-78
2024/02/26 11:54:09;;;;;;;;;;;588.80;1612.80;;;;;;4922459;29;19918;-77
2024/02/26 11:56:35;;;;;;;;;;;564.10;1561.60;;;;;;4928843;29;19911;-78
2024/02/26 11:59:01;;;;;;;;;;;564.00;1536.00;;;;;;4917874;29;19918;-78
2024/02/26 12:01:36;;;;;;;;;;;564.00;1561.60;;;;;;4909470;29;20379;-76
2024/02/26 12:04:04;;;;;;;;;;;564.10;1587.20;;;;;;4904391;29;20336;-80
2024/02/26 12:06:29;;;;;;;;;;;564.10;1561.60;;;;;;4911350;29;19921;-78
2024/02/26 12:08:56;;;;;;;;;;;588.80;1536.00;;;;;;4908356;29;20409;-77
2024/02/26 12:11:22;;;;;;;;;;;588.80;1536.00;;;;;;4917775;29;20439;-76
2024/02/26 12:13:49;;;;;;;;;;;588.90;1510.40;;;;;;4922764;29;19951;-77
2024/02/26 12:16:34;;;;;;;;;;;564.10;1536.00;;;;;;4928201;29;19922;-79
2024/02/26 12:19:00;;;;;;;;;;;588.90;1536.00;;;;;;4926690;29;19961;-76
2024/02/26 12:21:25;;;;;;;;;;;588.80;1510.40;;;;;;4933997;29;19966;-77
2024/02/26 12:23:51;;;;;;;;;;;588.80;1536.00;;;;;;4929472;29;19923;-77
2024/02/26 12:26:17;;;;;;;;;;;588.80;1510.40;;;;;;4925765;29;19911;-77
2024/02/26 12:28:43;;;;;;;;;;;564.10;1484.80;;;;;;4930787;29;19911;-77
2024/02/26 12:31:08;;;;;;;;;;;564.10;1536.00;;;;;;4920191;29;19911;-77
2024/02/26 12:33:34;;;;;;;;;;;588.80;1510.40;;;;;;4926916;29;19919;-81
2024/02/26 12:36:00;;;;;;;;;;;589.10;1510.40;;;;;;4926796;29;19911;-77
2024/02/26 12:38:26;;;;;;;;;;;589.10;1510.40;;;;;;4922141;29;19922;-79
2024/02/26 12:40:52;;;;;;;;;;;588.90;1510.40;;;;;;4930250;29;20287;-76
2024/02/26 12:43:18;;;;;;;;;;;589.00;1484.80;;;;;;4926929;29;19962;-76
2024/02/26 12:45:46;;;;;;;;;;;589.00;1484.80;;;;;;4910148;29;19959;-76
2024/02/26 12:48:12;;;;;;;;;;;589.00;1510.40;;;;;;4912003;29;19919;-77
2024/02/26 12:50:37;;;;;;;;;;;588.80;1510.40;;;;;;4922035;29;20344;-78
2024/02/26 12:53:03;;;;;;;;;;;589.00;1484.80;;;;;;4927173;29;19926;-81
2024/02/26 12:55:29;;;;;;;;;;;588.80;1484.80;;;;;;4938241;29;19910;-76
2024/02/26 12:57:55;;;;;;;;;;;589.50;1510.40;;;;;;4928616;29;19915;-76
2024/02/26 13:00:25;;;;;;;;;;;589.00;1510.40;;;;;;4932642;29;19926;-77
2024/02/26 13:02:51;;;;;;;;;;;588.90;1433.60;;;;;;4913441;29;20005;-78
2024/02/26 13:05:18;;;;;;;;;;;589.20;1459.20;;;;;;4932174;29;20410;-77
2024/02/26 13:07:47;;;;;;;;;;;589.20;1459.20;;;;;;4929746;29;19910;-78
2024/02/26 13:10:13;;;;;;;;;;;589.20;1459.20;;;;;;4929069;29;19975;-78
2024/02/26 13:12:45;;;;;;;;;;;563.80;1433.60;;;;;;4918115;29;20287;-76
2024/02/26 13:15:14;;;;;;;;;;;589.30;1408.00;;;;;;4934264;29;19911;-78
2024/02/26 13:17:39;;;;;;;;;;;588.90;1459.20;;;;;;4908969;29;19912;-78
2024/02/26 13:20:05;;;;;;;;;;;588.90;1459.20;;;;;;4921761;29;19919;-76
2024/02/26 13:22:33;;;;;;;;;;;589.00;1433.60;;;;;;4927278;29;19935;-78
2024/02/26 13:24:59;;;;;;;;;;;589.00;1484.80;;;;;;4925080;29;19950;-79
2024/02/26 13:27:25;;;;;;;;;;;564.10;1484.80;;;;;;4909079;29;19958;-76
2024/02/26 13:30:10;;;;;;;;;;;588.80;1459.20;;;;;;4916814;29;19911;-79
2024/02/26 13:32:36;;;;;;;;;;;564.00;1459.20;;;;;;4909841;29;19911;-77
2024/02/26 13:35:09;;;;;;;;;;;563.60;1459.20;;;;;;4938618;29;19925;-80
2024/02/26 13:37:38;;;;;;;;;;;563.60;1510.40;;;;;;4931001;29;19911;-77
2024/02/26 13:40:08;;;;;;;;;;;563.30;1484.80;;;;;;4933344;29;19926;-81